Yosemite Valley, CA

12:51 AM PST on December 20, 2014 (GMT -0800)
Loggers Retreat | Change Station
CLOSE
Current Station
Personal Weather Station
Location: Fish Camp, CA
Elevation: 4960 ft
Nearby Weather Stations

Elev 4960 ft 37.45 °N, 119.65 °W | Updated 21 minutes ago

Overcast
Overcast
39.3 °F
Feels Like 39 °F
N
0.0
Wind Variable Wind from North
Gusts 3.0 mph

Today
High -- | Low -- °F
--% Chance of Precip.
Yesterday
High -- | Low -- °F
Precip. -- in
7:09 AM 4:42 PM
Waning Crescent, 4% visible
Pressure 30.15 in
Visibility 5.0 miles
Clouds Mostly Cloudy 3400 ft
Mostly Cloudy 5000 ft
Overcast 6500 ft
Windchill 39 °F
Dew Point 37 °F
Humidity 93%
Rainfall 0.00 in
Snow Depth Not available.
UV 0.0 out of 12
Pollen 3.10 out of 12
Air Quality Not available.
Flu Activity Not available.
METAR KO22 200835Z AUTO 00000KT 5SM BKN034 BKN050 OVC065 08/08 A3015 RMK AO1 P0002

More Conditions Fewer Conditions

Pressure 30.15 in
Visibility 5.0 miles
Clouds Mostly Cloudy 3400 ft
Mostly Cloudy 5000 ft
Overcast 6500 ft
Windchill 39 °F
Dew Point 37 °F
Humidity 93%
Rainfall 0.00 in
Snow Depth Not available.
UV 0.0 out of 12
Pollen 3.10 out of 12
Air Quality Not available.
Flu Activity Not available.
METAR KO22 200835Z AUTO 00000KT 5SM BKN034 BKN050 OVC065 08/08 A3015 RMK AO1 P0002

More Conditions Fewer Conditions

10-Day Weather Forecast

Almanac

Astronomy

Dec. 20, 2014 Rise Set
Actual Time
Civil Twilight
Nautical Twilight
Astronomical Twilight
Moon
Length of Visible Light
Length of Day
Tomorrow will be .
, % of the Moon is Illuminated

Today's Extremes

State Highs State Lows

Community

WunderPhotos

Upload Photos

1,779,146 photos uploaded!

WunderBlogs® & News

Nearby

Air Quality

  Air Quality AQ Index Pollutant
Not available.

Snow Depth

Station Depth Elevation

Earthquake Activity

City Distance Mag. Time & Date
Minimum magnitude displayed is 2.5.

Coastal Water Temperatures

Place Temperature

Nearby Weather Stations